createdAt,value
2019-01-19T00:01:42.744Z,3.10
2019-01-19T00:04:46.861Z,2.80
2019-01-19T00:08:05.204Z,2.77
2019-01-19T00:11:29.237Z,3.30
2019-01-19T00:14:22.724Z,3.10
2019-01-19T00:17:28.813Z,2.73
2019-01-19T00:20:25.398Z,3.40
2019-01-19T00:23:32.117Z,2.90
2019-01-19T00:26:19.433Z,3.10
2019-01-19T00:28:53.716Z,3.30
2019-01-19T00:31:33.875Z,3.37
2019-01-19T00:34:44.819Z,3.73
2019-01-19T00:37:44.257Z,3.20
2019-01-19T00:41:06.469Z,3.20
2019-01-19T00:44:10.138Z,3.30
2019-01-19T00:47:13.795Z,3.50
2019-01-19T00:50:07.603Z,3.27
2019-01-19T00:52:53.300Z,3.20
2019-01-19T00:56:05.973Z,3.50
2019-01-19T00:59:16.224Z,2.83
2019-01-19T01:02:27.687Z,3.17
2019-01-19T01:05:06.388Z,3.43
2019-01-19T01:07:59.317Z,2.93
2019-01-19T01:10:59.615Z,2.90
2019-01-19T01:14:23.872Z,2.90
2019-01-19T01:17:28.846Z,2.80
2019-01-19T01:20:44.681Z,2.67
2019-01-19T01:24:03.698Z,3.70
2019-01-19T01:27:06.235Z,3.00
2019-01-19T01:30:05.150Z,2.77
2019-01-19T01:33:29.568Z,2.80
2019-01-19T01:36:29.039Z,2.60
2019-01-19T01:39:31.736Z,2.90
2019-01-19T01:42:30.331Z,2.90
2019-01-19T01:45:28.004Z,2.90
2019-01-19T01:48:22.789Z,3.97
2019-01-19T01:51:35.359Z,2.90
2019-01-19T01:54:46.212Z,3.10
2019-01-19T01:57:31.641Z,3.07
2019-01-19T02:00:33.409Z,2.70
2019-01-19T02:03:32.632Z,2.83
2019-01-19T02:06:29.884Z,2.60
2019-01-19T02:09:15.011Z,3.00
2019-01-19T02:12:40.398Z,2.80
2019-01-19T02:15:44.927Z,2.87
2019-01-19T02:19:16.893Z,2.63
2019-01-19T02:22:31.415Z,2.90
2019-01-19T02:25:39.604Z,2.83
2019-01-19T02:28:38.160Z,2.90
2019-01-19T02:31:34.148Z,3.00
2019-01-19T02:34:39.609Z,2.90
2019-01-19T02:38:01.189Z,2.80
2019-01-19T02:41:40.532Z,2.40
2019-01-19T02:44:33.851Z,2.70
2019-01-19T02:47:27.605Z,2.70
2019-01-19T02:50:34.756Z,2.73
2019-01-19T02:53:50.031Z,2.93
2019-01-19T02:56:50.700Z,2.87
2019-01-19T02:59:34.208Z,2.40
2019-01-19T03:02:46.725Z,2.57
2019-01-19T03:05:46.853Z,2.50
2019-01-19T03:09:02.009Z,2.30
2019-01-19T03:11:53.623Z,2.20
2019-01-19T03:15:09.190Z,2.30
2019-01-19T03:18:06.467Z,2.80
2019-01-19T03:20:46.334Z,2.63
2019-01-19T03:23:41.548Z,2.27
2019-01-19T03:26:56.684Z,2.37
2019-01-19T03:30:02.528Z,2.27
2019-01-19T03:32:59.845Z,2.60
2019-01-19T03:36:08.641Z,2.53
2019-01-19T03:39:19.894Z,2.53
2019-01-19T03:42:26.489Z,2.37
2019-01-19T03:45:20.677Z,2.23
2019-01-19T03:48:03.905Z,2.50
2019-01-19T03:51:16.377Z,2.37
2019-01-19T03:54:34.714Z,2.20
2019-01-19T03:57:24.683Z,2.30
2019-01-19T04:00:45.191Z,2.10
2019-01-19T04:04:00.491Z,2.10
2019-01-19T04:07:13.196Z,2.47
2019-01-19T04:10:08.073Z,2.47
2019-01-19T04:13:08.519Z,2.07
2019-01-19T04:15:52.195Z,2.37
2019-01-19T04:18:45.116Z,1.90
2019-01-19T04:21:38.529Z,2.30
2019-01-19T04:24:26.750Z,2.43
2019-01-19T04:26:56.545Z,2.00
2019-01-19T04:29:25.398Z,2.03
2019-01-19T04:31:53.024Z,2.17
2019-01-19T04:34:20.969Z,2.10
2019-01-19T04:36:48.602Z,2.00
2019-01-19T04:39:16.450Z,2.10
2019-01-19T04:41:44.089Z,2.23
2019-01-19T04:44:11.774Z,2.30
2019-01-19T04:46:39.488Z,2.17
2019-01-19T04:49:07.177Z,2.20
2019-01-19T04:51:34.949Z,2.33
2019-01-19T04:54:02.547Z,2.17
2019-01-19T04:56:30.152Z,1.97
2019-01-19T04:58:58.098Z,2.13
2019-01-19T05:01:25.697Z,2.17
2019-01-19T05:04:00.502Z,2.23
2019-01-19T05:06:30.589Z,2.57
2019-01-19T05:08:57.841Z,2.10
2019-01-19T05:11:25.650Z,2.47
2019-01-19T05:13:53.289Z,1.90
2019-01-19T05:16:20.915Z,2.40
2019-01-19T05:18:48.606Z,2.20
2019-01-19T05:21:16.881Z,2.00
2019-01-19T05:23:44.478Z,2.57
2019-01-19T05:26:12.162Z,2.47
2019-01-19T05:28:39.827Z,2.20
2019-01-19T05:31:07.718Z,2.13
2019-01-19T05:33:35.429Z,2.23
2019-01-19T05:36:03.150Z,2.13
2019-01-19T05:38:33.742Z,2.50
2019-01-19T05:41:02.364Z,2.23
2019-01-19T05:43:30.009Z,2.17
2019-01-19T05:45:57.668Z,2.30
2019-01-19T05:48:25.336Z,2.23
2019-01-19T05:50:52.958Z,2.47
2019-01-19T05:53:20.621Z,2.13
2019-01-19T05:55:48.398Z,2.13
2019-01-19T05:58:16.073Z,2.27
2019-01-19T06:00:43.792Z,2.10
2019-01-19T06:03:11.457Z,2.23
2019-01-19T06:05:40.441Z,2.10
2019-01-19T06:08:08.210Z,1.90
2019-01-19T06:10:35.883Z,2.10
2019-01-19T06:13:22.540Z,2.20
2019-01-19T06:15:50.255Z,2.30
2019-01-19T06:18:17.945Z,2.43
2019-01-19T06:20:45.785Z,2.40
2019-01-19T06:23:13.385Z,2.30
2019-01-19T06:25:41.017Z,2.50
2019-01-19T06:28:08.700Z,2.30
2019-01-19T06:30:36.503Z,2.60
2019-01-19T06:33:04.165Z,2.57
2019-01-19T06:35:31.792Z,2.77
2019-01-19T06:37:59.434Z,3.10
2019-01-19T06:40:27.016Z,4.73
2019-01-19T06:42:56.023Z,3.23
2019-01-19T06:45:24.966Z,10.07
2019-01-19T06:47:52.824Z,7.10
2019-01-19T06:50:20.639Z,9.60
2019-01-19T06:52:48.188Z,7.27
2019-01-19T06:55:18.257Z,6.60
2019-01-19T06:57:45.819Z,4.40
2019-01-19T07:00:14.956Z,3.87
2019-01-19T07:02:43.220Z,3.87
2019-01-19T07:05:11.260Z,3.27
2019-01-19T07:07:38.928Z,2.70
2019-01-19T07:10:10.539Z,2.70
2019-01-19T07:12:38.189Z,2.60
2019-01-19T07:15:07.138Z,2.70
2019-01-19T07:17:34.797Z,3.00
2019-01-19T07:20:03.312Z,2.97
2019-01-19T07:22:31.192Z,3.73
2019-01-19T07:24:58.864Z,2.90
2019-01-19T07:27:26.706Z,2.97
2019-01-19T07:29:54.722Z,3.03
2019-01-19T07:32:22.512Z,2.97
2019-01-19T07:34:50.348Z,3.10
2019-01-19T07:37:18.097Z,3.17
2019-01-19T07:39:46.026Z,3.43
2019-01-19T07:42:13.654Z,3.57
2019-01-19T07:44:41.286Z,3.20
2019-01-19T07:47:09.367Z,4.37
2019-01-19T07:49:37.010Z,3.23
2019-01-19T07:52:04.915Z,3.37
2019-01-19T07:54:32.545Z,3.00
2019-01-19T07:57:01.096Z,3.10
2019-01-19T07:59:28.823Z,3.30
2019-01-19T08:01:57.363Z,3.57
2019-01-19T08:04:25.045Z,3.23
2019-01-19T08:06:52.794Z,3.67
2019-01-19T08:09:20.447Z,3.77
2019-01-19T08:11:48.132Z,3.60
2019-01-19T08:14:15.770Z,3.57
2019-01-19T08:16:43.478Z,3.97
2019-01-19T08:19:11.106Z,4.30
2019-01-19T08:21:38.698Z,4.30
2019-01-19T08:24:06.376Z,4.27
2019-01-19T08:26:33.990Z,4.47
2019-01-19T08:29:01.718Z,4.57
2019-01-19T08:31:29.322Z,4.17
2019-01-19T08:33:56.998Z,4.17
2019-01-19T08:36:25.040Z,4.13
2019-01-19T08:38:52.756Z,4.33
2019-01-19T08:41:20.561Z,4.30
2019-01-19T08:43:53.676Z,3.77
2019-01-19T08:46:21.586Z,4.10
2019-01-19T08:48:49.164Z,4.27
2019-01-19T08:51:16.997Z,4.10
2019-01-19T08:53:44.628Z,4.37
2019-01-19T08:56:12.272Z,4.10
2019-01-19T08:58:39.889Z,4.63
2019-01-19T09:01:07.560Z,5.77
2019-01-19T09:03:35.221Z,4.23
2019-01-19T09:06:02.962Z,4.30
2019-01-19T09:08:30.557Z,4.70
2019-01-19T09:10:58.156Z,4.40
2019-01-19T09:13:25.752Z,4.10
2019-01-19T09:16:00.957Z,3.73
2019-01-19T09:18:28.645Z,3.83
2019-01-19T09:20:56.344Z,4.10
2019-01-19T09:23:41.553Z,4.20
2019-01-19T09:26:09.542Z,5.10
2019-01-19T09:28:37.096Z,4.93
2019-01-19T09:31:05.205Z,4.47
2019-01-19T09:33:33.070Z,4.27
2019-01-19T09:36:00.724Z,4.30
2019-01-19T09:38:28.352Z,4.60
2019-01-19T09:40:56.101Z,4.30
2019-01-19T09:43:23.808Z,4.70
2019-01-19T09:45:52.909Z,4.80
2019-01-19T09:48:20.655Z,4.60
2019-01-19T09:50:48.413Z,4.17
2019-01-19T09:53:16.484Z,4.67
2019-01-19T09:55:44.069Z,4.53
2019-01-19T09:58:11.702Z,4.67
2019-01-19T10:00:45.536Z,5.17
2019-01-19T10:03:15.141Z,4.80
2019-01-19T10:05:42.810Z,4.77
2019-01-19T10:08:10.639Z,4.70
2019-01-19T10:10:38.313Z,5.30
2019-01-19T10:13:05.926Z,4.70
2019-01-19T10:15:33.812Z,4.43
2019-01-19T10:18:01.465Z,5.53
2019-01-19T10:20:29.142Z,5.70
2019-01-19T10:22:56.758Z,5.20
2019-01-19T10:25:24.498Z,4.73
2019-01-19T10:27:52.287Z,4.73
2019-01-19T10:30:22.272Z,4.80
2019-01-19T10:32:49.948Z,5.60
2019-01-19T10:35:17.582Z,4.90
2019-01-19T10:37:45.251Z,5.37
2019-01-19T10:40:13.264Z,5.03
2019-01-19T10:42:41.424Z,5.13
2019-01-19T10:45:14.425Z,5.00
2019-01-19T10:47:42.045Z,5.20
2019-01-19T10:50:11.835Z,5.57
2019-01-19T10:52:39.457Z,5.20
2019-01-19T10:55:07.691Z,5.30
2019-01-19T10:57:35.552Z,4.60
2019-01-19T11:00:05.716Z,5.90
2019-01-19T11:02:33.348Z,5.97
2019-01-19T11:05:01.100Z,6.40
2019-01-19T11:07:29.067Z,6.70
2019-01-19T11:09:56.719Z,6.90
2019-01-19T11:12:24.409Z,7.33
2019-01-19T11:14:52.452Z,8.43
2019-01-19T11:17:20.198Z,8.57
2019-01-19T11:19:47.895Z,10.60
2019-01-19T11:22:15.551Z,10.67
2019-01-19T11:24:43.137Z,11.27
2019-01-19T11:27:10.893Z,10.70
2019-01-19T11:29:38.516Z,10.10
2019-01-19T11:32:06.127Z,10.30
2019-01-19T11:34:34.462Z,10.80
2019-01-19T11:37:02.236Z,11.00
2019-01-19T11:39:29.922Z,11.17
2019-01-19T11:41:57.537Z,10.90
2019-01-19T11:44:25.215Z,10.90
2019-01-19T11:46:53.120Z,11.50
2019-01-19T11:49:21.010Z,11.57
2019-01-19T11:51:48.979Z,11.43
2019-01-19T11:54:16.812Z,11.40
2019-01-19T11:56:45.650Z,11.17
2019-01-19T11:59:13.342Z,11.47
2019-01-19T12:01:41.016Z,11.33
2019-01-19T12:04:08.626Z,10.50
2019-01-19T12:06:36.253Z,11.13
2019-01-19T12:09:06.205Z,10.40
2019-01-19T12:11:33.785Z,10.63
2019-01-19T12:14:01.440Z,10.20
2019-01-19T12:16:29.642Z,9.83
2019-01-19T12:18:57.305Z,9.00
2019-01-19T12:21:25.089Z,9.50
2019-01-19T12:23:52.837Z,9.40
2019-01-19T12:26:20.504Z,9.37
2019-01-19T12:28:48.124Z,8.17
2019-01-19T12:31:15.749Z,8.10
2019-01-19T12:33:43.389Z,8.33
2019-01-19T12:36:11.004Z,8.00
2019-01-19T12:38:38.720Z,7.97
2019-01-19T12:41:06.350Z,7.70
2019-01-19T12:43:34.012Z,8.10
2019-01-19T12:46:04.277Z,7.40
2019-01-19T12:48:32.005Z,7.63
2019-01-19T12:51:01.453Z,7.60
2019-01-19T12:53:29.604Z,8.27
2019-01-19T12:55:57.180Z,9.50
2019-01-19T12:58:24.952Z,8.77
2019-01-19T13:00:52.677Z,8.13
2019-01-19T13:03:20.625Z,8.10
2019-01-19T13:06:35.668Z,8.37
2019-01-19T13:09:12.600Z,7.50
2019-01-19T13:12:26.710Z,8.80
2019-01-19T13:15:43.145Z,8.90
2019-01-19T13:18:41.004Z,8.30
2019-01-19T13:21:52.339Z,9.40
2019-01-19T13:24:34.471Z,8.67
2019-01-19T13:27:30.229Z,9.23
2019-01-19T13:30:41.565Z,9.50
2019-01-19T13:33:37.156Z,8.97
2019-01-19T13:36:30.504Z,10.37
2019-01-19T13:39:13.337Z,10.50
2019-01-19T13:42:29.024Z,10.33
2019-01-19T13:45:27.827Z,10.70
2019-01-19T13:48:41.218Z,10.63
2019-01-19T13:51:40.971Z,10.33
2019-01-19T13:55:02.105Z,11.07
2019-01-19T13:57:55.033Z,11.53
2019-01-19T14:01:04.383Z,11.43
2019-01-19T14:04:14.295Z,11.87
2019-01-19T14:07:13.425Z,11.23
2019-01-19T14:10:38.209Z,11.53
2019-01-19T14:13:32.572Z,12.20
2019-01-19T14:16:43.862Z,11.67
2019-01-19T14:19:42.525Z,11.63
2019-01-19T14:22:46.484Z,12.07
2019-01-19T14:25:58.672Z,12.03
2019-01-19T14:28:54.109Z,11.30
2019-01-19T14:31:57.944Z,11.90
2019-01-19T14:35:07.233Z,12.63
2019-01-19T14:38:13.760Z,12.73
2019-01-19T14:41:14.855Z,12.23
2019-01-19T14:43:58.093Z,11.80
2019-01-19T14:47:19.251Z,12.50
2019-01-19T14:50:22.913Z,12.60
2019-01-19T14:53:28.128Z,13.20
2019-01-19T14:56:26.580Z,13.67
2019-01-19T14:59:41.485Z,12.67
2019-01-19T15:02:49.196Z,13.47
2019-01-19T15:05:49.294Z,13.30
2019-01-19T15:08:44.455Z,13.23
2019-01-19T15:11:59.504Z,13.97
2019-01-19T15:15:07.988Z,13.80
2019-01-19T15:18:20.041Z,14.47
2019-01-19T15:21:19.872Z,13.40
2019-01-19T15:24:06.984Z,14.57
2019-01-19T15:27:16.989Z,15.90
2019-01-19T15:30:26.465Z,14.37
2019-01-19T15:33:56.776Z,15.23
2019-01-19T15:37:27.337Z,14.83
2019-01-19T15:40:24.393Z,14.03
2019-01-19T15:43:40.124Z,15.17
2019-01-19T15:46:43.648Z,19.37
2019-01-19T15:49:42.040Z,17.83
2019-01-19T15:52:39.086Z,17.00
2019-01-19T15:55:31.549Z,15.40
2019-01-19T15:58:44.160Z,15.93
2019-01-19T16:01:59.166Z,18.43
2019-01-19T16:04:53.340Z,21.80
2019-01-19T16:08:08.464Z,20.50
2019-01-19T16:11:04.542Z,22.77
2019-01-19T16:14:08.476Z,22.23
2019-01-19T16:16:50.499Z,20.17
2019-01-19T16:19:47.439Z,19.53
2019-01-19T16:23:26.716Z,18.13
2019-01-19T16:26:33.158Z,18.43
2019-01-19T16:29:18.320Z,20.10
2019-01-19T16:32:11.608Z,18.87
2019-01-19T16:35:23.780Z,18.00
2019-01-19T16:38:18.398Z,18.30
2019-01-19T16:41:04.020Z,18.30
2019-01-19T16:44:02.780Z,18.47
2019-01-19T16:46:52.510Z,20.70
2019-01-19T16:50:04.584Z,20.90
2019-01-19T16:52:52.245Z,20.80
2019-01-19T16:56:13.360Z,21.23
2019-01-19T16:59:26.047Z,21.30
2019-01-19T17:02:18.638Z,21.40
2019-01-19T17:05:05.198Z,21.70
2019-01-19T17:08:13.241Z,22.47
2019-01-19T17:11:37.420Z,21.60
2019-01-19T17:15:02.265Z,21.70
2019-01-19T17:17:57.624Z,21.60
2019-01-19T17:21:00.214Z,21.50
2019-01-19T17:24:05.984Z,26.10
2019-01-19T17:27:32.753Z,24.47
2019-01-19T17:30:40.734Z,21.30
2019-01-19T17:33:59.248Z,21.00
2019-01-19T17:36:39.682Z,22.70
2019-01-19T17:39:50.727Z,22.37
2019-01-19T17:42:54.940Z,21.50
2019-01-19T17:45:56.362Z,21.33
2019-01-19T17:48:57.208Z,22.53
2019-01-19T17:52:07.228Z,27.23
2019-01-19T17:55:08.449Z,26.20
2019-01-19T17:58:11.608Z,24.97
2019-01-19T18:01:10.991Z,24.13
2019-01-19T18:04:30.008Z,20.20
2019-01-19T18:07:40.872Z,17.97
2019-01-19T18:10:37.972Z,18.60
2019-01-19T18:13:30.330Z,17.83
2019-01-19T18:16:40.295Z,17.60
2019-01-19T18:20:07.396Z,16.80
2019-01-19T18:23:13.969Z,16.60
2019-01-19T18:26:23.407Z,15.70
2019-01-19T18:29:36.088Z,15.33
2019-01-19T18:32:35.282Z,21.37
2019-01-19T18:35:43.199Z,28.37
2019-01-19T18:38:55.013Z,19.33
2019-01-19T18:41:50.609Z,15.00
2019-01-19T18:45:00.473Z,12.73
2019-01-19T18:48:06.056Z,12.93
2019-01-19T18:51:20.565Z,12.67
2019-01-19T18:54:24.187Z,12.47
2019-01-19T18:57:45.135Z,12.40
2019-01-19T19:00:51.717Z,12.43
2019-01-19T19:03:58.414Z,12.10
2019-01-19T19:06:46.701Z,12.30
2019-01-19T19:10:03.499Z,12.57
2019-01-19T19:13:15.058Z,11.37
2019-01-19T19:16:02.181Z,11.17
2019-01-19T19:18:59.779Z,10.60
2019-01-19T19:22:23.875Z,11.10
2019-01-19T19:25:14.392Z,11.57
2019-01-19T19:28:27.753Z,10.63
2019-01-19T19:31:28.092Z,12.37
2019-01-19T19:34:11.732Z,13.60
2019-01-19T19:37:01.859Z,12.50
2019-01-19T19:40:00.725Z,11.97
2019-01-19T19:43:11.540Z,11.23
2019-01-19T19:46:07.588Z,10.70
2019-01-19T19:49:01.580Z,10.30
2019-01-19T19:51:59.333Z,9.63
2019-01-19T19:54:28.469Z,14.00
2019-01-19T19:56:56.371Z,13.77
2019-01-19T19:59:23.980Z,12.60
2019-01-19T20:01:51.667Z,11.03
2019-01-19T20:04:19.297Z,11.97
2019-01-19T20:06:47.040Z,10.83
2019-01-19T20:09:14.648Z,9.87
2019-01-19T20:11:42.292Z,10.07
2019-01-19T20:14:09.901Z,10.40
2019-01-19T20:16:37.573Z,10.13
2019-01-19T20:19:06.314Z,10.00
2019-01-19T20:21:33.955Z,10.70
2019-01-19T20:24:01.682Z,11.50
2019-01-19T20:26:29.335Z,10.37
2019-01-19T20:28:57.099Z,9.93
2019-01-19T20:31:24.726Z,9.97
2019-01-19T20:33:52.533Z,9.87
2019-01-19T20:36:20.566Z,9.90
2019-01-19T20:38:48.653Z,9.60
2019-01-19T20:41:16.284Z,9.37
2019-01-19T20:43:44.100Z,10.23
2019-01-19T20:46:11.938Z,9.20
2019-01-19T20:48:39.823Z,9.23
2019-01-19T20:51:10.608Z,9.30
2019-01-19T20:53:38.201Z,9.23
2019-01-19T20:56:05.876Z,9.10
2019-01-19T20:58:33.546Z,9.40
2019-01-19T21:01:01.181Z,8.33
2019-01-19T21:03:28.934Z,9.70
2019-01-19T21:05:56.586Z,9.30
2019-01-19T21:08:24.836Z,9.20
2019-01-19T21:10:52.488Z,9.37
2019-01-19T21:13:20.085Z,8.70
2019-01-19T21:15:47.741Z,9.60
2019-01-19T21:18:15.384Z,9.23
2019-01-19T21:20:43.080Z,9.50
2019-01-19T21:23:11.629Z,8.70
2019-01-19T21:25:39.778Z,9.73
2019-01-19T21:28:07.369Z,11.47
2019-01-19T21:30:35.085Z,9.57
2019-01-19T21:33:02.865Z,8.67
2019-01-19T21:35:30.656Z,9.30
2019-01-19T21:37:58.461Z,8.20
2019-01-19T21:40:26.912Z,8.93
2019-01-19T21:42:54.534Z,8.40
2019-01-19T21:45:22.219Z,8.30
2019-01-19T21:47:50.052Z,8.20
2019-01-19T21:50:17.739Z,8.67
2019-01-19T21:52:45.489Z,8.83
2019-01-19T21:55:13.088Z,8.13
2019-01-19T21:57:40.786Z,7.33
2019-01-19T22:00:11.154Z,7.80
2019-01-19T22:02:38.756Z,8.00
2019-01-19T22:05:07.025Z,7.60
2019-01-19T22:07:36.957Z,7.87
2019-01-19T22:10:06.564Z,8.40
2019-01-19T22:12:34.800Z,7.87
2019-01-19T22:15:02.801Z,7.93
2019-01-19T22:17:30.440Z,8.47
2019-01-19T22:19:58.122Z,8.53
2019-01-19T22:22:25.796Z,8.77
2019-01-19T22:24:53.477Z,8.07
2019-01-19T22:27:21.442Z,8.40
2019-01-19T22:29:49.108Z,8.03
2019-01-19T22:32:16.760Z,8.33
2019-01-19T22:34:46.926Z,7.87
2019-01-19T22:37:14.736Z,8.43
2019-01-19T22:39:42.444Z,7.93
2019-01-19T22:42:10.083Z,7.43
2019-01-19T22:44:38.001Z,7.87
2019-01-19T22:47:05.672Z,8.00
2019-01-19T22:49:33.369Z,8.23
2019-01-19T22:52:01.033Z,8.17
2019-01-19T22:54:28.965Z,8.03
2019-01-19T22:56:57.012Z,8.23
2019-01-19T22:59:24.693Z,7.53
2019-01-19T23:02:08.676Z,8.30
2019-01-19T23:04:36.392Z,7.97
2019-01-19T23:07:04.176Z,7.63
2019-01-19T23:09:31.851Z,7.10
2019-01-19T23:11:59.645Z,8.50
2019-01-19T23:14:27.742Z,8.03
2019-01-19T23:16:55.425Z,8.43
2019-01-19T23:19:23.092Z,8.73
2019-01-19T23:21:50.708Z,7.03
2019-01-19T23:24:18.316Z,6.90
2019-01-19T23:26:46.288Z,7.10
2019-01-19T23:29:13.932Z,6.27
2019-01-19T23:31:41.880Z,6.30
2019-01-19T23:34:09.510Z,6.30
2019-01-19T23:36:37.158Z,6.43
2019-01-19T23:39:07.898Z,6.30
2019-01-19T23:41:35.572Z,6.50
2019-01-19T23:44:03.321Z,6.00
2019-01-19T23:46:31.096Z,5.80
2019-01-19T23:48:58.985Z,5.83
2019-01-19T23:51:26.605Z,5.63
2019-01-19T23:53:54.261Z,5.83
2019-01-19T23:56:21.893Z,5.47
2019-01-19T23:58:49.564Z,6.13
